sensor_id;sensor_type;location;lat;lon;timestamp;P1;durP1;ratioP1;P2;durP2;ratioP2
35330;SDS011;21441;52.190;20.910;2024-01-11T00:00:10;108.75;;;52.15;;
35330;SDS011;21441;52.190;20.910;2024-01-11T00:02:57;89.05;;;47.58;;
35330;SDS011;21441;52.190;20.910;2024-01-11T00:05:25;83.13;;;38.60;;
35330;SDS011;21441;52.190;20.910;2024-01-11T00:07:53;76.63;;;38.75;;
35330;SDS011;21441;52.190;20.910;2024-01-11T00:10:20;77.13;;;41.45;;
35330;SDS011;21441;52.190;20.910;2024-01-11T00:12:48;77.68;;;37.35;;
35330;SDS011;21441;52.190;20.910;2024-01-11T00:15:15;86.55;;;45.42;;
35330;SDS011;21441;52.190;20.910;2024-01-11T00:17:42;84.82;;;38.83;;
35330;SDS011;21441;52.190;20.910;2024-01-11T00:20:09;82.90;;;40.45;;
35330;SDS011;21441;52.190;20.910;2024-01-11T00:22:37;86.32;;;37.95;;
35330;SDS011;21441;52.190;20.910;2024-01-11T00:25:06;86.10;;;42.58;;
35330;SDS011;21441;52.190;20.910;2024-01-11T00:27:34;82.82;;;38.80;;
35330;SDS011;21441;52.190;20.910;2024-01-11T00:30:01;76.55;;;36.83;;
35330;SDS011;21441;52.190;20.910;2024-01-11T00:32:28;72.80;;;35.55;;
35330;SDS011;21441;52.190;20.910;2024-01-11T00:34:55;97.85;;;40.58;;
35330;SDS011;21441;52.190;20.910;2024-01-11T00:37:22;95.97;;;43.55;;
35330;SDS011;21441;52.190;20.910;2024-01-11T00:39:50;98.88;;;44.65;;
35330;SDS011;21441;52.190;20.910;2024-01-11T00:42:19;91.05;;;44.22;;
35330;SDS011;21441;52.190;20.910;2024-01-11T00:44:46;98.53;;;47.50;;
35330;SDS011;21441;52.190;20.910;2024-01-11T00:47:13;96.40;;;44.78;;
35330;SDS011;21441;52.190;20.910;2024-01-11T00:49:40;102.50;;;44.58;;
35330;SDS011;21441;52.190;20.910;2024-01-11T00:52:08;104.90;;;43.40;;
35330;SDS011;21441;52.190;20.910;2024-01-11T00:54:39;96.45;;;46.83;;
35330;SDS011;21441;52.190;20.910;2024-01-11T00:57:06;87.10;;;43.75;;
35330;SDS011;21441;52.190;20.910;2024-01-11T00:59:34;81.82;;;40.13;;
35330;SDS011;21441;52.190;20.910;2024-01-11T01:02:02;106.30;;;43.45;;
35330;SDS011;21441;52.190;20.910;2024-01-11T01:04:29;92.32;;;42.20;;
35330;SDS011;21441;52.190;20.910;2024-01-11T01:06:57;76.07;;;35.78;;
35330;SDS011;21441;52.190;20.910;2024-01-11T01:09:24;94.85;;;42.28;;
35330;SDS011;21441;52.190;20.910;2024-01-11T01:11:51;87.95;;;41.28;;
35330;SDS011;21441;52.190;20.910;2024-01-11T01:14:18;90.88;;;42.25;;
35330;SDS011;21441;52.190;20.910;2024-01-11T01:16:47;91.45;;;40.65;;
35330;SDS011;21441;52.190;20.910;2024-01-11T01:19:13;98.85;;;43.50;;
35330;SDS011;21441;52.190;20.910;2024-01-11T01:21:41;98.78;;;45.97;;
35330;SDS011;21441;52.190;20.910;2024-01-11T01:24:08;84.15;;;40.53;;
35330;SDS011;21441;52.190;20.910;2024-01-11T01:26:35;92.25;;;42.22;;
35330;SDS011;21441;52.190;20.910;2024-01-11T01:29:02;75.78;;;36.40;;
35330;SDS011;21441;52.190;20.910;2024-01-11T01:31:29;81.00;;;39.33;;
35330;SDS011;21441;52.190;20.910;2024-01-11T01:34:04;74.40;;;36.67;;
35330;SDS011;21441;52.190;20.910;2024-01-11T01:36:31;83.68;;;43.40;;
35330;SDS011;21441;52.190;20.910;2024-01-11T01:38:58;94.95;;;44.30;;
35330;SDS011;21441;52.190;20.910;2024-01-11T01:41:25;70.82;;;36.83;;
35330;SDS011;21441;52.190;20.910;2024-01-11T01:43:52;85.63;;;40.60;;
35330;SDS011;21441;52.190;20.910;2024-01-11T01:46:21;90.43;;;41.63;;
35330;SDS011;21441;52.190;20.910;2024-01-11T01:48:50;92.63;;;40.10;;
35330;SDS011;21441;52.190;20.910;2024-01-11T01:51:19;83.13;;;40.28;;
35330;SDS011;21441;52.190;20.910;2024-01-11T01:53:47;77.73;;;38.57;;
35330;SDS011;21441;52.190;20.910;2024-01-11T01:56:16;95.78;;;42.53;;
35330;SDS011;21441;52.190;20.910;2024-01-11T01:58:45;82.63;;;39.22;;
35330;SDS011;21441;52.190;20.910;2024-01-11T02:01:12;89.85;;;40.33;;
35330;SDS011;21441;52.190;20.910;2024-01-11T02:03:40;86.00;;;39.88;;
35330;SDS011;21441;52.190;20.910;2024-01-11T02:06:08;79.07;;;35.50;;
35330;SDS011;21441;52.190;20.910;2024-01-11T02:08:36;81.80;;;41.20;;
35330;SDS011;21441;52.190;20.910;2024-01-11T02:11:06;80.70;;;36.97;;
35330;SDS011;21441;52.190;20.910;2024-01-11T02:13:33;75.60;;;37.97;;
35330;SDS011;21441;52.190;20.910;2024-01-11T02:16:01;85.95;;;39.97;;
35330;SDS011;21441;52.190;20.910;2024-01-11T02:18:28;91.40;;;40.50;;
35330;SDS011;21441;52.190;20.910;2024-01-11T02:20:55;86.50;;;37.28;;
35330;SDS011;21441;52.190;20.910;2024-01-11T02:23:24;95.18;;;43.00;;
35330;SDS011;21441;52.190;20.910;2024-01-11T02:25:54;89.35;;;37.88;;
35330;SDS011;21441;52.190;20.910;2024-01-11T02:28:21;82.22;;;38.47;;
35330;SDS011;21441;52.190;20.910;2024-01-11T02:30:48;86.38;;;36.50;;
35330;SDS011;21441;52.190;20.910;2024-01-11T02:33:15;87.65;;;40.15;;
35330;SDS011;21441;52.190;20.910;2024-01-11T02:35:44;92.20;;;38.67;;
35330;SDS011;21441;52.190;20.910;2024-01-11T02:38:11;83.40;;;37.75;;
35330;SDS011;21441;52.190;20.910;2024-01-11T02:40:38;80.35;;;37.53;;
35330;SDS011;21441;52.190;20.910;2024-01-11T02:43:10;87.63;;;39.58;;
35330;SDS011;21441;52.190;20.910;2024-01-11T02:45:38;54.60;;;27.15;;
35330;SDS011;21441;52.190;20.910;2024-01-11T02:48:05;83.20;;;38.72;;
35330;SDS011;21441;52.190;20.910;2024-01-11T02:50:32;82.07;;;36.95;;
35330;SDS011;21441;52.190;20.910;2024-01-11T02:52:59;76.38;;;33.70;;
35330;SDS011;21441;52.190;20.910;2024-01-11T02:55:27;74.15;;;34.80;;
35330;SDS011;21441;52.190;20.910;2024-01-11T02:57:54;66.40;;;33.72;;
35330;SDS011;21441;52.190;20.910;2024-01-11T03:00:22;63.63;;;31.88;;
35330;SDS011;21441;52.190;20.910;2024-01-11T03:02:49;74.78;;;32.90;;
35330;SDS011;21441;52.190;20.910;2024-01-11T03:05:17;70.75;;;35.53;;
35330;SDS011;21441;52.190;20.910;2024-01-11T03:07:43;66.90;;;32.92;;
35330;SDS011;21441;52.190;20.910;2024-01-11T03:10:11;62.88;;;30.65;;
35330;SDS011;21441;52.190;20.910;2024-01-11T03:12:39;64.22;;;30.95;;
35330;SDS011;21441;52.190;20.910;2024-01-11T03:15:06;61.45;;;28.42;;
35330;SDS011;21441;52.190;20.910;2024-01-11T03:17:35;68.03;;;30.58;;
35330;SDS011;21441;52.190;20.910;2024-01-11T03:20:02;74.15;;;32.05;;
35330;SDS011;21441;52.190;20.910;2024-01-11T03:22:31;67.32;;;30.15;;
35330;SDS011;21441;52.190;20.910;2024-01-11T03:24:58;60.47;;;29.25;;
35330;SDS011;21441;52.190;20.910;2024-01-11T03:27:25;57.03;;;29.10;;
35330;SDS011;21441;52.190;20.910;2024-01-11T03:29:52;72.43;;;29.63;;
35330;SDS011;21441;52.190;20.910;2024-01-11T03:32:19;64.85;;;30.35;;
35330;SDS011;21441;52.190;20.910;2024-01-11T03:34:48;53.88;;;26.75;;
35330;SDS011;21441;52.190;20.910;2024-01-11T03:37:15;65.68;;;28.77;;
35330;SDS011;21441;52.190;20.910;2024-01-11T03:39:42;59.35;;;26.73;;
35330;SDS011;21441;52.190;20.910;2024-01-11T03:42:09;67.15;;;30.30;;
35330;SDS011;21441;52.190;20.910;2024-01-11T03:44:36;64.55;;;30.98;;
35330;SDS011;21441;52.190;20.910;2024-01-11T03:47:04;56.65;;;25.90;;
35330;SDS011;21441;52.190;20.910;2024-01-11T03:49:31;68.50;;;33.30;;
35330;SDS011;21441;52.190;20.910;2024-01-11T03:51:59;51.47;;;24.10;;
35330;SDS011;21441;52.190;20.910;2024-01-11T03:54:26;61.13;;;27.67;;
35330;SDS011;21441;52.190;20.910;2024-01-11T03:56:53;77.40;;;34.42;;
35330;SDS011;21441;52.190;20.910;2024-01-11T03:59:20;85.07;;;31.85;;
35330;SDS011;21441;52.190;20.910;2024-01-11T04:01:47;53.67;;;26.33;;
35330;SDS011;21441;52.190;20.910;2024-01-11T04:04:14;68.82;;;32.50;;
35330;SDS011;21441;52.190;20.910;2024-01-11T04:06:42;74.05;;;33.58;;
35330;SDS011;21441;52.190;20.910;2024-01-11T04:09:10;69.65;;;30.80;;
35330;SDS011;21441;52.190;20.910;2024-01-11T04:11:37;86.13;;;36.42;;
35330;SDS011;21441;52.190;20.910;2024-01-11T04:14:04;70.18;;;33.83;;
35330;SDS011;21441;52.190;20.910;2024-01-11T04:16:32;75.70;;;31.27;;
35330;SDS011;21441;52.190;20.910;2024-01-11T04:18:59;78.40;;;34.92;;
35330;SDS011;21441;52.190;20.910;2024-01-11T04:23:55;72.53;;;34.00;;
35330;SDS011;21441;52.190;20.910;2024-01-11T04:26:24;79.85;;;36.92;;
35330;SDS011;21441;52.190;20.910;2024-01-11T04:28:51;79.20;;;34.00;;
35330;SDS011;21441;52.190;20.910;2024-01-11T04:31:19;84.20;;;36.03;;
35330;SDS011;21441;52.190;20.910;2024-01-11T04:33:46;64.90;;;31.13;;
35330;SDS011;21441;52.190;20.910;2024-01-11T04:36:13;77.88;;;32.53;;
35330;SDS011;21441;52.190;20.910;2024-01-11T04:38:40;59.40;;;27.67;;
35330;SDS011;21441;52.190;20.910;2024-01-11T04:41:08;68.50;;;31.23;;
35330;SDS011;21441;52.190;20.910;2024-01-11T04:43:37;89.18;;;35.58;;
35330;SDS011;21441;52.190;20.910;2024-01-11T04:46:12;77.88;;;34.40;;
35330;SDS011;21441;52.190;20.910;2024-01-11T04:48:39;88.13;;;33.67;;
35330;SDS011;21441;52.190;20.910;2024-01-11T04:51:07;64.15;;;29.55;;
35330;SDS011;21441;52.190;20.910;2024-01-11T04:53:36;87.20;;;33.60;;
35330;SDS011;21441;52.190;20.910;2024-01-11T04:56:04;76.55;;;33.17;;
35330;SDS011;21441;52.190;20.910;2024-01-11T04:58:33;89.88;;;34.00;;
35330;SDS011;21441;52.190;20.910;2024-01-11T05:01:11;86.43;;;31.92;;
35330;SDS011;21441;52.190;20.910;2024-01-11T05:03:57;73.38;;;32.35;;
35330;SDS011;21441;52.190;20.910;2024-01-11T05:06:26;68.85;;;29.92;;
35330;SDS011;21441;52.190;20.910;2024-01-11T05:09:04;82.72;;;33.30;;
35330;SDS011;21441;52.190;20.910;2024-01-11T05:11:35;76.30;;;33.65;;
35330;SDS011;21441;52.190;20.910;2024-01-11T05:14:08;66.53;;;28.40;;
35330;SDS011;21441;52.190;20.910;2024-01-11T05:16:47;79.13;;;34.08;;
35330;SDS011;21441;52.190;20.910;2024-01-11T05:19:30;86.82;;;34.17;;
35330;SDS011;21441;52.190;20.910;2024-01-11T05:21:58;80.35;;;32.55;;
35330;SDS011;21441;52.190;20.910;2024-01-11T05:24:32;62.00;;;27.73;;
35330;SDS011;21441;52.190;20.910;2024-01-11T05:27:12;66.65;;;27.98;;
35330;SDS011;21441;52.190;20.910;2024-01-11T05:29:41;68.82;;;28.95;;
35330;SDS011;21441;52.190;20.910;2024-01-11T05:32:13;77.03;;;30.50;;
35330;SDS011;21441;52.190;20.910;2024-01-11T05:34:53;49.78;;;24.85;;
35330;SDS011;21441;52.190;20.910;2024-01-11T05:37:23;77.25;;;32.55;;
35330;SDS011;21441;52.190;20.910;2024-01-11T05:39:55;52.05;;;24.90;;
35330;SDS011;21441;52.190;20.910;2024-01-11T05:42:27;70.25;;;28.02;;
35330;SDS011;21441;52.190;20.910;2024-01-11T05:45:01;61.42;;;26.70;;
35330;SDS011;21441;52.190;20.910;2024-01-11T05:47:47;59.42;;;26.92;;
35330;SDS011;21441;52.190;20.910;2024-01-11T05:50:28;56.60;;;26.75;;
35330;SDS011;21441;52.190;20.910;2024-01-11T05:53:03;63.83;;;30.58;;
35330;SDS011;21441;52.190;20.910;2024-01-11T05:55:44;42.45;;;20.33;;
35330;SDS011;21441;52.190;20.910;2024-01-11T05:58:29;56.75;;;26.48;;
35330;SDS011;21441;52.190;20.910;2024-01-11T06:01:15;63.72;;;24.05;;
35330;SDS011;21441;52.190;20.910;2024-01-11T06:03:53;51.58;;;23.23;;
35330;SDS011;21441;52.190;20.910;2024-01-11T06:06:26;58.92;;;25.85;;
35330;SDS011;21441;52.190;20.910;2024-01-11T06:09:16;48.42;;;19.27;;
35330;SDS011;21441;52.190;20.910;2024-01-11T06:12:08;42.42;;;19.73;;
35330;SDS011;21441;52.190;20.910;2024-01-11T06:14:39;47.53;;;21.67;;
35330;SDS011;21441;52.190;20.910;2024-01-11T06:17:14;35.63;;;16.93;;
35330;SDS011;21441;52.190;20.910;2024-01-11T06:19:47;47.60;;;20.60;;
35330;SDS011;21441;52.190;20.910;2024-01-11T06:22:19;45.38;;;20.63;;
35330;SDS011;21441;52.190;20.910;2024-01-11T06:24:47;46.55;;;19.65;;
35330;SDS011;21441;52.190;20.910;2024-01-11T06:27:34;44.50;;;19.48;;
35330;SDS011;21441;52.190;20.910;2024-01-11T06:30:10;37.65;;;17.90;;
35330;SDS011;21441;52.190;20.910;2024-01-11T06:32:39;46.40;;;19.35;;
35330;SDS011;21441;52.190;20.910;2024-01-11T06:35:15;36.38;;;17.20;;
35330;SDS011;21441;52.190;20.910;2024-01-11T06:37:53;42.00;;;18.65;;
35330;SDS011;21441;52.190;20.910;2024-01-11T06:40:26;44.88;;;17.10;;
35330;SDS011;21441;52.190;20.910;2024-01-11T06:43:01;32.22;;;16.65;;
35330;SDS011;21441;52.190;20.910;2024-01-11T06:45:48;40.70;;;18.63;;
35330;SDS011;21441;52.190;20.910;2024-01-11T06:48:25;37.92;;;17.20;;
35330;SDS011;21441;52.190;20.910;2024-01-11T06:51:03;38.90;;;20.63;;
35330;SDS011;21441;52.190;20.910;2024-01-11T06:53:39;33.35;;;16.90;;
35330;SDS011;21441;52.190;20.910;2024-01-11T06:56:18;47.50;;;18.20;;
35330;SDS011;21441;52.190;20.910;2024-01-11T06:58:50;52.72;;;20.02;;
35330;SDS011;21441;52.190;20.910;2024-01-11T07:01:25;41.75;;;18.42;;
35330;SDS011;21441;52.190;20.910;2024-01-11T07:03:54;37.60;;;15.85;;
35330;SDS011;21441;52.190;20.910;2024-01-11T07:06:24;37.83;;;15.43;;
35330;SDS011;21441;52.190;20.910;2024-01-11T07:08:54;43.45;;;19.98;;
35330;SDS011;21441;52.190;20.910;2024-01-11T07:11:25;45.15;;;17.90;;
35330;SDS011;21441;52.190;20.910;2024-01-11T07:13:56;36.30;;;16.90;;
35330;SDS011;21441;52.190;20.910;2024-01-11T07:16:34;45.50;;;19.77;;
35330;SDS011;21441;52.190;20.910;2024-01-11T07:19:02;47.65;;;18.90;;
35330;SDS011;21441;52.190;20.910;2024-01-11T07:21:31;42.55;;;20.27;;
35330;SDS011;21441;52.190;20.910;2024-01-11T07:26:48;37.05;;;14.63;;
35330;SDS011;21441;52.190;20.910;2024-01-11T07:29:22;43.70;;;17.25;;
35330;SDS011;21441;52.190;20.910;2024-01-11T07:31:53;48.00;;;18.30;;
35330;SDS011;21441;52.190;20.910;2024-01-11T07:34:23;44.65;;;17.85;;
35330;SDS011;21441;52.190;20.910;2024-01-11T07:36:53;53.08;;;20.67;;
35330;SDS011;21441;52.190;20.910;2024-01-11T07:39:20;55.80;;;20.20;;
35330;SDS011;21441;52.190;20.910;2024-01-11T07:41:48;48.83;;;21.42;;
35330;SDS011;21441;52.190;20.910;2024-01-11T07:44:16;59.05;;;21.08;;
35330;SDS011;21441;52.190;20.910;2024-01-11T07:46:45;53.97;;;21.02;;
35330;SDS011;21441;52.190;20.910;2024-01-11T07:49:16;44.10;;;17.83;;
35330;SDS011;21441;52.190;20.910;2024-01-11T07:51:43;47.38;;;18.27;;
35330;SDS011;21441;52.190;20.910;2024-01-11T07:54:12;55.88;;;21.50;;
35330;SDS011;21441;52.190;20.910;2024-01-11T07:56:40;69.25;;;25.55;;
35330;SDS011;21441;52.190;20.910;2024-01-11T07:59:09;70.05;;;23.52;;
35330;SDS011;21441;52.190;20.910;2024-01-11T08:01:40;58.78;;;23.27;;
35330;SDS011;21441;52.190;20.910;2024-01-11T08:04:07;43.15;;;17.05;;
35330;SDS011;21441;52.190;20.910;2024-01-11T08:06:34;58.95;;;23.85;;
35330;SDS011;21441;52.190;20.910;2024-01-11T08:09:01;59.47;;;21.13;;
35330;SDS011;21441;52.190;20.910;2024-01-11T08:11:31;50.25;;;21.42;;
35330;SDS011;21441;52.190;20.910;2024-01-11T08:13:58;39.25;;;19.17;;
35330;SDS011;21441;52.190;20.910;2024-01-11T08:16:26;62.97;;;23.88;;
35330;SDS011;21441;52.190;20.910;2024-01-11T08:18:53;70.63;;;23.30;;
35330;SDS011;21441;52.190;20.910;2024-01-11T08:21:20;65.72;;;23.55;;
35330;SDS011;21441;52.190;20.910;2024-01-11T08:23:47;54.95;;;21.33;;
35330;SDS011;21441;52.190;20.910;2024-01-11T08:26:15;56.78;;;25.15;;
35330;SDS011;21441;52.190;20.910;2024-01-11T08:28:45;49.93;;;20.70;;
35330;SDS011;21441;52.190;20.910;2024-01-11T08:31:12;54.40;;;22.45;;
35330;SDS011;21441;52.190;20.910;2024-01-11T08:33:39;63.00;;;22.95;;
35330;SDS011;21441;52.190;20.910;2024-01-11T08:36:07;72.95;;;24.42;;
35330;SDS011;21441;52.190;20.910;2024-01-11T08:38:34;59.85;;;20.95;;
35330;SDS011;21441;52.190;20.910;2024-01-11T08:41:02;64.55;;;21.17;;
35330;SDS011;21441;52.190;20.910;2024-01-11T08:43:29;61.15;;;21.98;;
35330;SDS011;21441;52.190;20.910;2024-01-11T08:45:58;55.25;;;21.42;;
35330;SDS011;21441;52.190;20.910;2024-01-11T08:48:26;55.05;;;22.63;;
35330;SDS011;21441;52.190;20.910;2024-01-11T08:50:54;62.38;;;22.42;;
35330;SDS011;21441;52.190;20.910;2024-01-11T08:53:21;49.80;;;19.08;;
35330;SDS011;21441;52.190;20.910;2024-01-11T08:55:48;62.13;;;24.83;;
35330;SDS011;21441;52.190;20.910;2024-01-11T08:58:15;61.75;;;20.73;;
35330;SDS011;21441;52.190;20.910;2024-01-11T09:00:42;59.08;;;23.55;;
35330;SDS011;21441;52.190;20.910;2024-01-11T09:03:10;54.97;;;22.35;;
35330;SDS011;21441;52.190;20.910;2024-01-11T09:05:39;55.10;;;25.23;;
35330;SDS011;21441;52.190;20.910;2024-01-11T09:08:06;59.60;;;21.70;;
35330;SDS011;21441;52.190;20.910;2024-01-11T09:10:33;54.28;;;24.92;;
35330;SDS011;21441;52.190;20.910;2024-01-11T09:13:00;57.20;;;21.50;;
35330;SDS011;21441;52.190;20.910;2024-01-11T09:15:28;62.95;;;22.50;;
35330;SDS011;21441;52.190;20.910;2024-01-11T09:17:55;57.88;;;20.63;;
35330;SDS011;21441;52.190;20.910;2024-01-11T09:20:24;44.45;;;19.35;;
35330;SDS011;21441;52.190;20.910;2024-01-11T09:22:51;52.78;;;18.90;;
35330;SDS011;21441;52.190;20.910;2024-01-11T09:25:18;41.03;;;19.75;;
35330;SDS011;21441;52.190;20.910;2024-01-11T09:27:45;57.88;;;22.33;;
35330;SDS011;21441;52.190;20.910;2024-01-11T09:30:12;37.45;;;18.50;;
35330;SDS011;21441;52.190;20.910;2024-01-11T09:32:39;46.13;;;18.13;;
35330;SDS011;21441;52.190;20.910;2024-01-11T09:35:07;40.97;;;17.77;;
35330;SDS011;21441;52.190;20.910;2024-01-11T09:37:35;57.13;;;24.85;;
35330;SDS011;21441;52.190;20.910;2024-01-11T09:40:03;57.25;;;22.40;;
35330;SDS011;21441;52.190;20.910;2024-01-11T09:42:35;46.05;;;18.08;;
35330;SDS011;21441;52.190;20.910;2024-01-11T09:45:03;53.13;;;21.88;;
35330;SDS011;21441;52.190;20.910;2024-01-11T09:47:35;46.78;;;22.17;;
35330;SDS011;21441;52.190;20.910;2024-01-11T09:50:03;48.13;;;19.75;;
35330;SDS011;21441;52.190;20.910;2024-01-11T09:52:31;42.40;;;17.95;;
35330;SDS011;21441;52.190;20.910;2024-01-11T09:55:00;55.40;;;23.52;;
35330;SDS011;21441;52.190;20.910;2024-01-11T09:57:28;50.30;;;21.65;;
35330;SDS011;21441;52.190;20.910;2024-01-11T09:59:57;37.50;;;18.35;;
35330;SDS011;21441;52.190;20.910;2024-01-11T10:02:25;51.00;;;19.48;;
35330;SDS011;21441;52.190;20.910;2024-01-11T10:04:53;59.63;;;21.45;;
35330;SDS011;21441;52.190;20.910;2024-01-11T10:07:21;52.10;;;21.58;;
35330;SDS011;21441;52.190;20.910;2024-01-11T10:12:19;54.38;;;18.73;;
35330;SDS011;21441;52.190;20.910;2024-01-11T10:14:50;57.95;;;22.55;;
35330;SDS011;21441;52.190;20.910;2024-01-11T10:17:17;51.55;;;21.35;;
35330;SDS011;21441;52.190;20.910;2024-01-11T10:19:45;52.35;;;22.80;;
35330;SDS011;21441;52.190;20.910;2024-01-11T10:22:12;50.42;;;20.67;;
35330;SDS011;21441;52.190;20.910;2024-01-11T10:24:42;52.28;;;21.75;;
35330;SDS011;21441;52.190;20.910;2024-01-11T10:27:10;46.10;;;21.45;;
35330;SDS011;21441;52.190;20.910;2024-01-11T10:29:40;48.47;;;18.85;;
35330;SDS011;21441;52.190;20.910;2024-01-11T10:32:06;59.58;;;23.08;;
35330;SDS011;21441;52.190;20.910;2024-01-11T10:34:33;56.58;;;22.38;;
35330;SDS011;21441;52.190;20.910;2024-01-11T10:37:02;61.50;;;21.80;;
35330;SDS011;21441;52.190;20.910;2024-01-11T10:39:30;44.45;;;20.77;;
35330;SDS011;21441;52.190;20.910;2024-01-11T10:42:03;52.95;;;22.88;;
35330;SDS011;21441;52.190;20.910;2024-01-11T10:44:32;60.72;;;23.63;;
35330;SDS011;21441;52.190;20.910;2024-01-11T10:47:02;40.08;;;20.02;;
35330;SDS011;21441;52.190;20.910;2024-01-11T10:49:31;55.00;;;24.20;;
35330;SDS011;21441;52.190;20.910;2024-01-11T10:52:00;55.60;;;22.87;;
35330;SDS011;21441;52.190;20.910;2024-01-11T10:54:30;53.55;;;23.15;;
35330;SDS011;21441;52.190;20.910;2024-01-11T10:57:00;56.25;;;21.38;;
35330;SDS011;21441;52.190;20.910;2024-01-11T10:59:29;68.85;;;23.98;;
35330;SDS011;21441;52.190;20.910;2024-01-11T11:02:03;62.80;;;22.67;;
35330;SDS011;21441;52.190;20.910;2024-01-11T11:04:49;61.10;;;24.27;;
35330;SDS011;21441;52.190;20.910;2024-01-11T11:07:20;79.63;;;29.25;;
35330;SDS011;21441;52.190;20.910;2024-01-11T11:09:46;64.07;;;24.98;;
35330;SDS011;21441;52.190;20.910;2024-01-11T11:12:17;73.88;;;29.33;;
35330;SDS011;21441;52.190;20.910;2024-01-11T11:14:45;57.92;;;24.05;;
35330;SDS011;21441;52.190;20.910;2024-01-11T11:17:16;54.97;;;24.48;;
35330;SDS011;21441;52.190;20.910;2024-01-11T11:19:43;59.83;;;23.75;;
35330;SDS011;21441;52.190;20.910;2024-01-11T11:22:12;95.20;;;30.25;;
35330;SDS011;21441;52.190;20.910;2024-01-11T11:24:40;71.40;;;27.38;;
35330;SDS011;21441;52.190;20.910;2024-01-11T11:27:07;87.88;;;29.63;;
35330;SDS011;21441;52.190;20.910;2024-01-11T11:29:34;75.22;;;27.75;;
35330;SDS011;21441;52.190;20.910;2024-01-11T11:32:02;69.50;;;26.17;;
35330;SDS011;21441;52.190;20.910;2024-01-11T11:34:43;87.07;;;32.05;;
35330;SDS011;21441;52.190;20.910;2024-01-11T11:37:11;80.85;;;30.45;;
35330;SDS011;21441;52.190;20.910;2024-01-11T11:39:38;81.20;;;31.15;;
35330;SDS011;21441;52.190;20.910;2024-01-11T11:42:08;77.38;;;26.35;;
35330;SDS011;21441;52.190;20.910;2024-01-11T11:44:37;76.57;;;30.50;;
35330;SDS011;21441;52.190;20.910;2024-01-11T11:47:21;96.13;;;30.70;;
35330;SDS011;21441;52.190;20.910;2024-01-11T11:50:04;81.25;;;27.25;;
35330;SDS011;21441;52.190;20.910;2024-01-11T11:52:33;72.18;;;24.80;;
35330;SDS011;21441;52.190;20.910;2024-01-11T11:55:01;72.38;;;27.60;;
35330;SDS011;21441;52.190;20.910;2024-01-11T11:57:29;96.18;;;28.70;;
35330;SDS011;21441;52.190;20.910;2024-01-11T11:59:56;95.95;;;29.27;;
35330;SDS011;21441;52.190;20.910;2024-01-11T12:02:24;70.78;;;26.65;;
35330;SDS011;21441;52.190;20.910;2024-01-11T12:04:52;90.95;;;28.38;;
35330;SDS011;21441;52.190;20.910;2024-01-11T12:07:22;79.57;;;30.98;;
35330;SDS011;21441;52.190;20.910;2024-01-11T12:09:50;87.68;;;33.33;;
35330;SDS011;21441;52.190;20.910;2024-01-11T12:12:18;89.68;;;28.95;;
35330;SDS011;21441;52.190;20.910;2024-01-11T12:14:46;79.50;;;28.02;;
35330;SDS011;21441;52.190;20.910;2024-01-11T12:17:14;69.63;;;25.67;;
35330;SDS011;21441;52.190;20.910;2024-01-11T12:19:41;89.50;;;29.45;;
35330;SDS011;21441;52.190;20.910;2024-01-11T12:22:09;77.22;;;27.35;;
35330;SDS011;21441;52.190;20.910;2024-01-11T12:24:39;89.25;;;28.52;;
35330;SDS011;21441;52.190;20.910;2024-01-11T12:27:07;82.38;;;27.67;;
35330;SDS011;21441;52.190;20.910;2024-01-11T12:29:34;94.32;;;33.00;;
35330;SDS011;21441;52.190;20.910;2024-01-11T12:32:01;88.25;;;29.98;;
35330;SDS011;21441;52.190;20.910;2024-01-11T12:34:29;93.78;;;30.88;;
35330;SDS011;21441;52.190;20.910;2024-01-11T12:36:58;77.25;;;28.17;;
35330;SDS011;21441;52.190;20.910;2024-01-11T12:39:28;76.90;;;25.35;;
35330;SDS011;21441;52.190;20.910;2024-01-11T12:41:56;69.30;;;25.17;;
35330;SDS011;21441;52.190;20.910;2024-01-11T12:44:24;94.63;;;31.40;;
35330;SDS011;21441;52.190;20.910;2024-01-11T12:46:51;89.95;;;30.20;;
35330;SDS011;21441;52.190;20.910;2024-01-11T12:49:18;81.90;;;27.60;;
35330;SDS011;21441;52.190;20.910;2024-01-11T12:51:46;100.65;;;33.55;;
35330;SDS011;21441;52.190;20.910;2024-01-11T12:54:13;85.35;;;29.75;;
35330;SDS011;21441;52.190;20.910;2024-01-11T12:56:45;69.53;;;29.27;;
35330;SDS011;21441;52.190;20.910;2024-01-11T12:59:13;86.40;;;31.75;;
35330;SDS011;21441;52.190;20.910;2024-01-11T13:01:42;66.30;;;26.50;;
35330;SDS011;21441;52.190;20.910;2024-01-11T13:04:09;78.68;;;31.05;;
35330;SDS011;21441;52.190;20.910;2024-01-11T13:06:37;70.57;;;26.90;;
35330;SDS011;21441;52.190;20.910;2024-01-11T13:09:04;74.47;;;29.33;;
35330;SDS011;21441;52.190;20.910;2024-01-11T13:11:33;74.85;;;30.90;;
35330;SDS011;21441;52.190;20.910;2024-01-11T13:14:01;79.18;;;28.70;;
35330;SDS011;21441;52.190;20.910;2024-01-11T13:16:33;72.13;;;26.92;;
35330;SDS011;21441;52.190;20.910;2024-01-11T13:19:00;66.35;;;30.08;;
35330;SDS011;21441;52.190;20.910;2024-01-11T13:21:28;66.40;;;26.92;;
35330;SDS011;21441;52.190;20.910;2024-01-11T13:23:55;91.38;;;32.33;;
35330;SDS011;21441;52.190;20.910;2024-01-11T13:26:23;81.50;;;27.00;;
35330;SDS011;21441;52.190;20.910;2024-01-11T13:28:50;84.50;;;30.27;;
35330;SDS011;21441;52.190;20.910;2024-01-11T13:31:18;69.65;;;28.85;;
35330;SDS011;21441;52.190;20.910;2024-01-11T13:33:47;80.00;;;29.45;;
35330;SDS011;21441;52.190;20.910;2024-01-11T13:36:17;76.15;;;28.98;;
35330;SDS011;21441;52.190;20.910;2024-01-11T13:38:45;82.68;;;30.58;;
35330;SDS011;21441;52.190;20.910;2024-01-11T13:41:12;90.38;;;31.30;;
35330;SDS011;21441;52.190;20.910;2024-01-11T13:43:39;80.50;;;30.35;;
35330;SDS011;21441;52.190;20.910;2024-01-11T13:46:06;78.43;;;29.73;;
35330;SDS011;21441;52.190;20.910;2024-01-11T13:48:34;90.03;;;31.63;;
35330;SDS011;21441;52.190;20.910;2024-01-11T13:51:07;93.10;;;33.03;;
35330;SDS011;21441;52.190;20.910;2024-01-11T13:53:41;96.63;;;30.50;;
35330;SDS011;21441;52.190;20.910;2024-01-11T13:56:12;82.45;;;29.60;;
35330;SDS011;21441;52.190;20.910;2024-01-11T13:59:01;94.50;;;33.38;;
35330;SDS011;21441;52.190;20.910;2024-01-11T14:01:29;76.38;;;28.38;;
35330;SDS011;21441;52.190;20.910;2024-01-11T14:03:56;77.22;;;30.83;;
35330;SDS011;21441;52.190;20.910;2024-01-11T14:06:24;71.70;;;31.38;;
35330;SDS011;21441;52.190;20.910;2024-01-11T14:08:51;77.47;;;31.10;;
35330;SDS011;21441;52.190;20.910;2024-01-11T14:11:18;69.38;;;28.00;;
35330;SDS011;21441;52.190;20.910;2024-01-11T14:13:45;74.40;;;30.25;;
35330;SDS011;21441;52.190;20.910;2024-01-11T14:16:13;94.72;;;35.15;;
35330;SDS011;21441;52.190;20.910;2024-01-11T14:18:41;75.10;;;30.27;;
35330;SDS011;21441;52.190;20.910;2024-01-11T14:21:08;85.45;;;30.27;;
35330;SDS011;21441;52.190;20.910;2024-01-11T14:23:38;81.22;;;32.10;;
35330;SDS011;21441;52.190;20.910;2024-01-11T14:26:05;86.05;;;34.80;;
35330;SDS011;21441;52.190;20.910;2024-01-11T14:28:32;90.22;;;34.03;;